Dayton, Idaho
Current Conditions -  °F | °C
As of 6:51 PM on Friday 21 Nov 2014 (Local Time) from KLGU Reporting Station
Clear Clear  
Wind Chill: 32°   Ceiling: Unl
Heat Index: 32°   Visibility: 10mi
Dew Point: 25°   Wind: 0mph
Humidity: 75%   Direction: NA
Pressure: 29.98"   Gusts: NA
Location:  42.11°N, 111.99°W
Report Text: KLGU 220151Z AUTO 00000KT 10SM CLR 00/M04 A2998 RMK AO2 SLP178 T00001039
Loading
Personal Weather Stations






























Interactive Weather Map New forecast layout! Learn more

10-Day Weather Forecast

Advertisements
Track Severe Weather on mobile